Impacts TAF Board
For situational awareness. Not to be used for flight planning purposes.
IDs:

KCLT - Charlotte/Douglas In, NC, US

Issued at 1120 UTC 17 Dec 2018
Updated at 1138 UTC 17 Dec 2018
Potential Impact None Slight Moderate High
Time1052Z 17/12Z 17/13Z 17/14Z 17/15Z 17/16Z 17/17Z 17/18Z 17/19Z 17/20Z 17/21Z 17/22Z 17/23Z 18/00Z>>
Type OBS PRVL PRVL PRVL PRVL PRVL PRVL PRVL PRVL PRVL PRVL PRVL PRVL PRVL
VIS 10 >6 >6 >6 >6 >6 >6 >6 >6 >6 >6 >6 >6 >6
CIG -- -- -- -- -- -- -- -- -- -- -- -- -- --
Cover FEW FEW FEW FEW FEW FEW FEW FEW FEW FEW FEW FEW FEW SKC
FltCat VFR VFR VFR VFR VFR VFR VFR VFR VFR VFR VFR VFR VFR VFR
WX -- -- -- -- -- -- -- -- -- -- -- -- -- --
WDir VRB 260 260 260 290 290 290 290 290 290 290 290 290 290
WSpd 0 3 3 3 5 5 5 5 5 5 5 5 5 3
WGst -- -- -- -- -- -- -- -- -- -- -- -- -- --
Raw TAF
KCLT 171120Z 1712/1818 26003KT P6SM FEW250
  FM171500 29005KT P6SM FEW250
  FM180000 29003KT P6SM SKC
  FM180900 03003KT P6SM SKC


Raw METAR
KCLT 171052Z 00000KT 10SM FEW250 03/02 A3005 RMK AO2 SLP174 T00280022
KCLT 170952Z 26003KT 10SM FEW250 03/03 A3003 RMK AO2 SLP168 T00330028
KCLT 170852Z 31005KT 10SM FEW250 06/04 A3003 RMK AO2 SLP169 T00560039 58005

METAR Board
Radar Display
Forecast Discussion
For situational awareness. Not to be used for flight planning purposes.